createdAt,value
2022-11-26T00:01:30.047Z,15.07
2022-11-26T00:06:35.003Z,13.82
2022-11-26T00:11:36.411Z,12.80
2022-11-26T00:16:37.838Z,13.25
2022-11-26T00:21:41.114Z,13.30
2022-11-26T00:26:42.492Z,12.23
2022-11-26T00:31:43.878Z,12.45
2022-11-26T00:36:45.542Z,13.95
2022-11-26T00:41:50.766Z,12.88
2022-11-26T00:46:52.798Z,12.77
2022-11-26T00:51:54.294Z,12.93
2022-11-26T00:56:55.747Z,13.50
2022-11-26T01:01:57.151Z,12.73
2022-11-26T01:06:58.563Z,12.73
2022-11-26T01:11:59.975Z,12.95
2022-11-26T01:17:01.434Z,14.20
2022-11-26T01:22:02.951Z,12.82
2022-11-26T01:27:08.855Z,12.82
2022-11-26T01:32:11.281Z,12.45
2022-11-26T01:37:14.221Z,13.82
2022-11-26T01:42:41.719Z,12.85
2022-11-26T01:47:44.159Z,12.20
2022-11-26T01:52:45.851Z,10.85
2022-11-26T01:57:48.647Z,12.65
2022-11-26T02:02:50.123Z,12.18
2022-11-26T02:07:53.159Z,12.32
2022-11-26T02:18:02.057Z,12.73
2022-11-26T02:23:25.779Z,12.55
2022-11-26T02:29:00.252Z,12.23
2022-11-26T02:34:21.383Z,12.52
2022-11-26T02:39:26.231Z,12.80
2022-11-26T02:44:46.715Z,13.13
2022-11-26T02:49:51.351Z,15.70
2022-11-26T02:54:52.966Z,16.35
2022-11-26T02:59:54.514Z,13.90
2022-11-26T03:04:59.691Z,16.02
2022-11-26T03:10:02.060Z,15.07
2022-11-26T03:15:03.684Z,14.30
2022-11-26T03:20:08.185Z,15.63
2022-11-26T03:25:10.254Z,14.23
2022-11-26T03:30:12.058Z,13.77
2022-11-26T03:35:13.619Z,13.32
2022-11-26T03:40:16.663Z,13.45
2022-11-26T03:50:19.407Z,14.15
2022-11-26T03:55:21.762Z,14.33
2022-11-26T04:00:23.259Z,14.25
2022-11-26T04:05:24.640Z,14.40
2022-11-26T04:10:26.104Z,15.18
2022-11-26T04:15:27.777Z,14.32
2022-11-26T04:20:29.194Z,13.95
2022-11-26T04:25:30.559Z,15.70
2022-11-26T04:30:31.930Z,15.65
2022-11-26T04:35:33.415Z,16.55
2022-11-26T04:40:34.835Z,16.23
2022-11-26T04:45:36.245Z,16.25
2022-11-26T04:50:37.651Z,16.23
2022-11-26T04:55:39.018Z,16.02
2022-11-26T05:00:40.418Z,15.98
2022-11-26T05:05:41.942Z,15.63
2022-11-26T05:10:43.379Z,15.93
2022-11-26T05:15:44.742Z,14.93
2022-11-26T05:20:46.137Z,14.95
2022-11-26T05:25:47.866Z,16.10
2022-11-26T05:30:49.386Z,15.48
2022-11-26T05:35:50.776Z,14.23
2022-11-26T05:40:52.139Z,13.77
2022-11-26T05:45:53.660Z,14.50
2022-11-26T05:50:59.210Z,14.98
2022-11-26T05:56:00.659Z,15.30
2022-11-26T06:01:07.721Z,18.67
2022-11-26T06:06:09.263Z,17.85
2022-11-26T06:11:12.850Z,18.00
2022-11-26T06:16:14.317Z,20.00
2022-11-26T06:21:15.770Z,18.17
2022-11-26T06:26:17.143Z,17.55
2022-11-26T06:31:18.779Z,17.23
2022-11-26T06:36:20.407Z,18.20
2022-11-26T06:41:21.839Z,16.70
2022-11-26T06:46:23.299Z,18.98
2022-11-26T06:51:27.578Z,19.25
2022-11-26T06:56:29.252Z,17.23
2022-11-26T07:01:30.976Z,17.65
2022-11-26T07:06:33.085Z,17.85
2022-11-26T07:11:35.738Z,15.15
2022-11-26T07:16:37.201Z,16.80
2022-11-26T07:21:38.608Z,18.55
2022-11-26T07:26:39.992Z,16.73
2022-11-26T07:31:41.588Z,12.98
2022-11-26T07:36:43.451Z,16.80
2022-11-26T07:41:44.859Z,16.08
2022-11-26T07:46:46.308Z,17.00
2022-11-26T07:51:47.723Z,14.20
2022-11-26T07:56:49.106Z,13.15
2022-11-26T08:01:50.576Z,16.83
2022-11-26T08:06:52.106Z,14.63
2022-11-26T08:11:53.485Z,12.27
2022-11-26T08:16:54.939Z,13.45
2022-11-26T08:21:56.331Z,13.10
2022-11-26T08:27:00.556Z,12.52
2022-11-26T08:32:02.022Z,12.10
2022-11-26T08:37:03.667Z,11.65
2022-11-26T08:42:05.126Z,10.93
2022-11-26T08:47:06.552Z,12.95
2022-11-26T08:52:07.992Z,12.93
2022-11-26T08:57:09.368Z,11.02
2022-11-26T09:02:15.981Z,12.13
2022-11-26T09:07:19.932Z,10.43
2022-11-26T09:12:23.016Z,11.68
2022-11-26T09:17:26.865Z,10.95
2022-11-26T09:22:28.250Z,9.98
2022-11-26T09:27:29.708Z,9.43
2022-11-26T09:32:34.181Z,7.65
2022-11-26T09:37:36.270Z,7.88
2022-11-26T09:43:08.187Z,8.00
2022-11-26T09:48:16.647Z,8.20
2022-11-26T09:53:28.319Z,7.43
2022-11-26T09:58:49.096Z,8.23
2022-11-26T10:03:51.964Z,8.82
2022-11-26T10:09:14.963Z,7.00
2022-11-26T10:14:53.944Z,6.65
2022-11-26T10:20:16.030Z,8.25
2022-11-26T10:25:20.570Z,6.72
2022-11-26T10:30:25.261Z,6.72
2022-11-26T10:35:29.722Z,7.25
2022-11-26T10:40:32.130Z,8.20
2022-11-26T10:45:54.020Z,6.50
2022-11-26T10:50:55.567Z,6.28
2022-11-26T10:56:04.085Z,5.13
2022-11-26T11:01:06.820Z,5.70
2022-11-26T11:06:33.118Z,5.15
2022-11-26T11:11:34.623Z,4.45
2022-11-26T11:16:46.120Z,4.97
2022-11-26T11:21:48.653Z,5.20
2022-11-26T11:26:55.739Z,4.60
2022-11-26T11:31:57.650Z,3.80
2022-11-26T11:37:06.131Z,5.57
2022-11-26T11:42:22.478Z,4.13
2022-11-26T11:47:47.443Z,4.75
2022-11-26T11:52:51.962Z,5.13
2022-11-26T11:58:18.315Z,5.68
2022-11-26T12:03:26.442Z,5.45
2022-11-26T12:08:54.921Z,5.07
2022-11-26T12:14:20.610Z,5.97
2022-11-26T12:19:29.118Z,5.70
2022-11-26T12:24:46.399Z,6.25
2022-11-26T12:29:55.739Z,5.82
2022-11-26T12:35:04.182Z,6.70
2022-11-26T12:40:41.741Z,5.90
2022-11-26T12:46:04.863Z,5.50
2022-11-26T12:56:41.966Z,5.28
2022-11-26T13:01:43.391Z,5.53
2022-11-26T13:07:08.049Z,5.10
2022-11-26T13:12:42.371Z,4.95
2022-11-26T13:17:46.340Z,5.00
2022-11-26T13:23:33.267Z,4.80
2022-11-26T13:28:43.662Z,4.75
2022-11-26T13:34:03.860Z,5.60
2022-11-26T13:39:13.794Z,4.78
2022-11-26T13:44:49.190Z,5.15
2022-11-26T13:50:07.686Z,5.15
2022-11-26T13:55:17.043Z,5.30
2022-11-26T14:00:27.323Z,5.38
2022-11-26T14:05:48.928Z,4.95
2022-11-26T14:10:50.314Z,5.95
2022-11-26T14:16:01.442Z,4.82
2022-11-26T14:21:03.916Z,4.55
2022-11-26T14:26:06.494Z,4.15
2022-11-26T14:31:25.892Z,3.97
2022-11-26T14:36:29.727Z,3.95
2022-11-26T14:41:43.136Z,4.50
2022-11-26T14:46:48.208Z,5.20
2022-11-26T14:51:53.342Z,5.00
2022-11-26T14:56:58.994Z,4.95
2022-11-26T15:02:00.464Z,5.68
2022-11-26T15:07:01.896Z,5.20
2022-11-26T15:12:11.896Z,7.72
2022-11-26T15:17:17.061Z,8.65
2022-11-26T15:22:44.148Z,8.10
2022-11-26T15:28:01.934Z,12.57
2022-11-26T15:33:12.302Z,8.38
2022-11-26T15:38:16.083Z,10.05
2022-11-26T15:43:42.738Z,10.20
2022-11-26T15:48:53.722Z,9.65
2022-11-26T15:53:55.598Z,9.18
2022-11-26T15:59:00.473Z,9.23
2022-11-26T16:04:06.041Z,7.30
2022-11-26T16:09:13.666Z,7.18
2022-11-26T16:14:32.907Z,7.07
2022-11-26T16:19:34.318Z,6.00
2022-11-26T16:24:43.526Z,7.65
2022-11-26T16:29:45.522Z,7.90
2022-11-26T16:34:46.941Z,7.25
2022-11-26T16:39:50.313Z,7.10
2022-11-26T16:44:51.751Z,7.00
2022-11-26T16:49:53.750Z,7.30
2022-11-26T16:54:55.186Z,6.93
2022-11-26T17:00:05.317Z,7.53
2022-11-26T17:05:07.014Z,6.55
2022-11-26T17:10:18.314Z,6.80
2022-11-26T17:15:19.825Z,7.25
2022-11-26T17:20:26.695Z,7.47
2022-11-26T17:25:29.571Z,6.13
2022-11-26T17:30:31.071Z,7.90
2022-11-26T17:35:32.652Z,7.45
2022-11-26T17:40:34.424Z,6.45
2022-11-26T17:45:36.135Z,7.25
2022-11-26T17:50:37.562Z,6.43
2022-11-26T17:55:39.155Z,7.15
2022-11-26T18:05:56.631Z,9.85
2022-11-26T18:10:58.263Z,7.68
2022-11-26T18:16:00.102Z,8.48
2022-11-26T18:21:01.663Z,8.18
2022-11-26T18:26:03.120Z,8.57
2022-11-26T18:31:04.623Z,10.98
2022-11-26T18:36:06.367Z,10.35
2022-11-26T18:41:08.203Z,8.93
2022-11-26T18:46:17.209Z,11.27
2022-11-26T18:51:18.875Z,11.05
2022-11-26T18:56:24.939Z,10.77
2022-11-26T19:01:39.568Z,11.40
2022-11-26T19:06:45.142Z,10.95
2022-11-26T19:17:21.801Z,11.20
2022-11-26T19:33:25.448Z,10.73
2022-11-26T19:38:47.813Z,9.60
2022-11-26T19:44:21.999Z,8.93
2022-11-26T19:49:23.455Z,12.65
2022-11-26T19:54:28.401Z,12.23
2022-11-26T19:59:30.771Z,11.38
2022-11-26T20:04:32.304Z,9.20
2022-11-26T20:09:33.874Z,7.43
2022-11-26T20:14:35.254Z,6.90
2022-11-26T20:19:37.320Z,7.13
2022-11-26T20:24:38.882Z,7.00
2022-11-26T20:36:24.391Z,7.10
2022-11-26T20:49:40.047Z,5.93
2022-11-26T21:00:24.803Z,6.82
2022-11-26T21:12:20.471Z,7.07
2022-11-26T21:23:34.147Z,7.28
2022-11-26T21:28:36.798Z,6.93
2022-11-26T21:40:08.986Z,6.60
2022-11-26T21:57:26.682Z,7.53
2022-11-26T22:02:40.451Z,8.27
2022-11-26T22:21:02.348Z,8.40
2022-11-26T22:26:04.007Z,8.77
2022-11-26T22:31:14.871Z,8.52
2022-11-26T22:36:16.451Z,9.30
2022-11-26T22:41:18.002Z,9.18
2022-11-26T22:46:21.929Z,9.73
2022-11-26T22:51:24.837Z,8.65
2022-11-26T22:56:28.233Z,9.13
2022-11-26T23:01:31.796Z,9.10
2022-11-26T23:06:34.716Z,7.53
2022-11-26T23:11:38.892Z,8.23
2022-11-26T23:16:42.657Z,7.85
2022-11-26T23:21:46.479Z,9.80
2022-11-26T23:26:47.911Z,8.77
2022-11-26T23:31:50.477Z,9.02
2022-11-26T23:36:51.878Z,9.70
2022-11-26T23:41:53.247Z,9.35
2022-11-26T23:46:54.654Z,8.25
2022-11-26T23:51:56.027Z,8.07
2022-11-26T23:56:57.427Z,9.50
